Newport News-Williamsburg International, VA

5:29 AM EDT on April 27, 2015 (GMT -0400)
Newport News-Williamsburg International | | Change Station
CLOSE
Current Station
Airport
Location: Newport News,
Elevation: 43 ft
Nearby Weather Stations

Elev 43 ft 37.13 °N, 76.49 °W | Updated 11 minutes ago

Haze
Haze
43 °F
Feels Like 43 °F
N
0
Wind Variable Wind from North

Today
High -- | Low -- °F
--% Chance of Precip.
Yesterday
High -- | Low -- °F
Precip. -- in
6:16 AM 7:51 PM
Waxing Gibbous, 63% visible
Pressure 29.73 in
Visibility 4.0 miles
Clouds Clear
Dew Point 38 °F
Humidity 82%
Rainfall 0.00 in
Snow Depth Not available.
UV 0 out of 12
Pollen 2.20 out of 12
Air Quality Not available.
Flu Activity Sporadic
SPECI KPHF 270918Z 00000KT 4SM HZ CLR 06/03 A2973 RMK AO2 T00610033

More Conditions Fewer Conditions

Pressure 29.73 in
Visibility 4.0 miles
Clouds Clear
Dew Point 38 °F
Humidity 82%
Rainfall 0.00 in
Snow Depth Not available.
UV 0 out of 12
Pollen 2.20 out of 12
Air Quality Not available.
Flu Activity Sporadic
SPECI KPHF 270918Z 00000KT 4SM HZ CLR 06/03 A2973 RMK AO2 T00610033

More Conditions Fewer Conditions

10-Day Weather Forecast

Almanac

Astronomy

Apr. 27, 2015 Rise Set
Actual Time
Civil Twilight
Nautical Twilight
Astronomical Twilight
Moon
Length of Visible Light
Length of Day
Tomorrow will be .
, % of the Moon is Illuminated

Today's Extremes

State Highs State Lows

Community

WunderPhotos

Upload Photos

1,817,278 photos uploaded!

WunderBlogs® & News

Nearby

Air Quality

  Air Quality AQ Index Pollutant
Not available.

Snow Depth

Station Depth Elevation

Earthquake Activity

City Distance Mag. Time & Date
Minimum magnitude displayed is 2.5.

Coastal Water Temperatures

Place Temperature

Stations

Nearby Weather Stations

Station Location Temp. Windchill Dew Point Humidity Wind Precip. Elev Updated Type